Terminal Aerodrome Forecast
Issued by NWS

Home | Current Version | Previous Version | Text Only | Print | Product List | Glossary On
Versions: 1 2 3 4 5 6 7 8 9 10 11 12 13 14
000
FTUS45 KABQ 172339
TAFTCC
TAF
KTCC 172339Z 1800/1824 26018G28KT P6SM SCT100
     FM181000 31020G30KT P6SM FEW100
     FM181230 02018G25KT P6SM SCT050
     FM181800 03009KT P6SM SKC=

USA.gov is the U.S. government's official web portal to all federal, state and local government web resources and services.